sensor_id;sensor_type;location;lat;lon;timestamp;P1;durP1;ratioP1;P2;durP2;ratioP2
55800;SDS011;41730;51.960;20.158;2022-10-10T00:00:18;20.10;;;12.70;;
55800;SDS011;41730;51.960;20.158;2022-10-10T00:02:49;21.20;;;12.00;;
55800;SDS011;41730;51.960;20.158;2022-10-10T00:05:21;20.50;;;12.00;;
55800;SDS011;41730;51.960;20.158;2022-10-10T00:07:52;21.20;;;12.40;;
55800;SDS011;41730;51.960;20.158;2022-10-10T00:10:24;21.80;;;13.40;;
55800;SDS011;41730;51.960;20.158;2022-10-10T00:12:55;22.30;;;13.10;;
55800;SDS011;41730;51.960;20.158;2022-10-10T00:15:27;24.70;;;13.30;;
55800;SDS011;41730;51.960;20.158;2022-10-10T00:17:58;23.60;;;13.70;;
55800;SDS011;41730;51.960;20.158;2022-10-10T00:20:30;22.50;;;13.70;;
55800;SDS011;41730;51.960;20.158;2022-10-10T00:23:02;27.30;;;14.70;;
55800;SDS011;41730;51.960;20.158;2022-10-10T00:25:33;26.30;;;14.60;;
55800;SDS011;41730;51.960;20.158;2022-10-10T00:28:06;26.20;;;14.30;;
55800;SDS011;41730;51.960;20.158;2022-10-10T00:30:37;23.90;;;14.10;;
55800;SDS011;41730;51.960;20.158;2022-10-10T00:33:09;23.50;;;14.20;;
55800;SDS011;41730;51.960;20.158;2022-10-10T00:35:40;23.10;;;13.30;;
55800;SDS011;41730;51.960;20.158;2022-10-10T00:38:11;23.40;;;12.90;;
55800;SDS011;41730;51.960;20.158;2022-10-10T00:40:47;26.10;;;15.10;;
55800;SDS011;41730;51.960;20.158;2022-10-10T00:43:21;23.20;;;13.50;;
55800;SDS011;41730;51.960;20.158;2022-10-10T00:45:53;25.50;;;13.90;;
55800;SDS011;41730;51.960;20.158;2022-10-10T00:48:25;24.40;;;13.50;;
55800;SDS011;41730;51.960;20.158;2022-10-10T00:50:59;23.60;;;14.50;;
55800;SDS011;41730;51.960;20.158;2022-10-10T00:53:34;28.50;;;13.50;;
55800;SDS011;41730;51.960;20.158;2022-10-10T00:56:07;24.20;;;13.30;;
55800;SDS011;41730;51.960;20.158;2022-10-10T00:58:42;22.90;;;13.90;;
55800;SDS011;41730;51.960;20.158;2022-10-10T01:01:18;24.10;;;13.70;;
55800;SDS011;41730;51.960;20.158;2022-10-10T01:03:50;23.20;;;13.00;;
55800;SDS011;41730;51.960;20.158;2022-10-10T01:06:21;23.50;;;13.90;;
55800;SDS011;41730;51.960;20.158;2022-10-10T01:08:53;20.70;;;12.70;;
55800;SDS011;41730;51.960;20.158;2022-10-10T01:11:40;28.40;;;15.00;;
55800;SDS011;41730;51.960;20.158;2022-10-10T01:14:22;32.90;;;16.40;;
55800;SDS011;41730;51.960;20.158;2022-10-10T01:17:05;34.40;;;17.70;;
55800;SDS011;41730;51.960;20.158;2022-10-10T01:22:43;28.00;;;16.20;;
55800;SDS011;41730;51.960;20.158;2022-10-10T01:25:30;36.80;;;19.10;;
55800;SDS011;41730;51.960;20.158;2022-10-10T01:28:09;23.60;;;14.30;;
55800;SDS011;41730;51.960;20.158;2022-10-10T01:30:51;21.60;;;12.90;;
55800;SDS011;41730;51.960;20.158;2022-10-10T01:33:26;21.80;;;12.00;;
55800;SDS011;41730;51.960;20.158;2022-10-10T01:36:05;18.30;;;12.10;;
55800;SDS011;41730;51.960;20.158;2022-10-10T01:38:48;19.40;;;11.30;;
55800;SDS011;41730;51.960;20.158;2022-10-10T01:41:25;22.50;;;12.00;;
55800;SDS011;41730;51.960;20.158;2022-10-10T01:44:02;21.70;;;12.00;;
55800;SDS011;41730;51.960;20.158;2022-10-10T01:46:33;18.60;;;11.60;;
55800;SDS011;41730;51.960;20.158;2022-10-10T01:49:04;18.40;;;10.70;;
55800;SDS011;41730;51.960;20.158;2022-10-10T01:51:41;20.10;;;12.40;;
55800;SDS011;41730;51.960;20.158;2022-10-10T01:54:27;19.90;;;12.90;;
55800;SDS011;41730;51.960;20.158;2022-10-10T01:57:12;20.10;;;11.60;;
55800;SDS011;41730;51.960;20.158;2022-10-10T01:59:52;22.00;;;12.50;;
55800;SDS011;41730;51.960;20.158;2022-10-10T02:02:35;19.20;;;12.00;;
55800;SDS011;41730;51.960;20.158;2022-10-10T02:05:19;18.80;;;10.90;;
55800;SDS011;41730;51.960;20.158;2022-10-10T02:07:56;24.10;;;13.50;;
55800;SDS011;41730;51.960;20.158;2022-10-10T02:10:32;20.40;;;12.20;;
55800;SDS011;41730;51.960;20.158;2022-10-10T02:13:08;18.70;;;11.00;;
55800;SDS011;41730;51.960;20.158;2022-10-10T02:15:42;20.60;;;11.50;;
55800;SDS011;41730;51.960;20.158;2022-10-10T02:18:19;18.20;;;11.60;;
55800;SDS011;41730;51.960;20.158;2022-10-10T02:20:53;16.80;;;11.40;;
55800;SDS011;41730;51.960;20.158;2022-10-10T02:23:25;19.70;;;11.60;;
55800;SDS011;41730;51.960;20.158;2022-10-10T02:25:57;21.10;;;12.10;;
55800;SDS011;41730;51.960;20.158;2022-10-10T02:28:30;20.50;;;11.30;;
55800;SDS011;41730;51.960;20.158;2022-10-10T02:31:08;18.10;;;10.70;;
55800;SDS011;41730;51.960;20.158;2022-10-10T02:33:45;18.40;;;10.90;;
55800;SDS011;41730;51.960;20.158;2022-10-10T02:36:20;13.60;;;8.90;;
55800;SDS011;41730;51.960;20.158;2022-10-10T02:38:53;16.50;;;10.30;;
55800;SDS011;41730;51.960;20.158;2022-10-10T02:41:27;15.80;;;10.60;;
55800;SDS011;41730;51.960;20.158;2022-10-10T02:44:01;15.30;;;10.30;;
55800;SDS011;41730;51.960;20.158;2022-10-10T02:46:32;16.80;;;10.80;;
55800;SDS011;41730;51.960;20.158;2022-10-10T02:49:06;15.50;;;10.80;;
55800;SDS011;41730;51.960;20.158;2022-10-10T02:51:37;16.70;;;10.50;;
55800;SDS011;41730;51.960;20.158;2022-10-10T02:54:09;14.70;;;9.30;;
55800;SDS011;41730;51.960;20.158;2022-10-10T02:56:40;13.60;;;8.80;;
55800;SDS011;41730;51.960;20.158;2022-10-10T02:59:11;14.40;;;8.50;;
55800;SDS011;41730;51.960;20.158;2022-10-10T03:01:43;13.70;;;8.90;;
55800;SDS011;41730;51.960;20.158;2022-10-10T03:04:14;14.30;;;9.10;;
55800;SDS011;41730;51.960;20.158;2022-10-10T03:06:46;15.80;;;8.70;;
55800;SDS011;41730;51.960;20.158;2022-10-10T03:09:17;16.90;;;9.20;;
55800;SDS011;41730;51.960;20.158;2022-10-10T03:11:48;14.80;;;8.50;;
55800;SDS011;41730;51.960;20.158;2022-10-10T03:14:20;14.20;;;9.20;;
55800;SDS011;41730;51.960;20.158;2022-10-10T03:16:51;14.80;;;9.20;;
55800;SDS011;41730;51.960;20.158;2022-10-10T03:19:23;12.30;;;8.50;;
55800;SDS011;41730;51.960;20.158;2022-10-10T03:21:55;13.40;;;8.80;;
55800;SDS011;41730;51.960;20.158;2022-10-10T03:24:30;11.70;;;8.20;;
55800;SDS011;41730;51.960;20.158;2022-10-10T03:27:06;13.90;;;7.90;;
55800;SDS011;41730;51.960;20.158;2022-10-10T03:29:37;12.70;;;8.20;;
55800;SDS011;41730;51.960;20.158;2022-10-10T03:32:08;12.40;;;8.40;;
55800;SDS011;41730;51.960;20.158;2022-10-10T03:34:39;13.30;;;8.40;;
55800;SDS011;41730;51.960;20.158;2022-10-10T03:37:13;15.00;;;9.00;;
55800;SDS011;41730;51.960;20.158;2022-10-10T03:39:44;14.80;;;9.00;;
55800;SDS011;41730;51.960;20.158;2022-10-10T03:42:16;13.80;;;8.80;;
55800;SDS011;41730;51.960;20.158;2022-10-10T03:44:47;13.30;;;8.70;;
55800;SDS011;41730;51.960;20.158;2022-10-10T03:47:18;14.10;;;8.80;;
55800;SDS011;41730;51.960;20.158;2022-10-10T03:49:49;13.80;;;8.90;;
55800;SDS011;41730;51.960;20.158;2022-10-10T03:52:20;13.00;;;8.30;;
55800;SDS011;41730;51.960;20.158;2022-10-10T03:54:52;14.80;;;8.00;;
55800;SDS011;41730;51.960;20.158;2022-10-10T03:57:23;12.00;;;7.60;;
55800;SDS011;41730;51.960;20.158;2022-10-10T03:59:54;13.80;;;8.60;;
55800;SDS011;41730;51.960;20.158;2022-10-10T04:02:26;12.10;;;8.60;;
55800;SDS011;41730;51.960;20.158;2022-10-10T04:04:57;15.00;;;9.30;;
55800;SDS011;41730;51.960;20.158;2022-10-10T04:07:28;13.60;;;8.40;;
55800;SDS011;41730;51.960;20.158;2022-10-10T04:09:59;15.90;;;8.80;;
55800;SDS011;41730;51.960;20.158;2022-10-10T04:12:30;13.40;;;8.60;;
55800;SDS011;41730;51.960;20.158;2022-10-10T04:15:02;15.20;;;8.60;;
55800;SDS011;41730;51.960;20.158;2022-10-10T04:17:34;15.30;;;9.00;;
55800;SDS011;41730;51.960;20.158;2022-10-10T04:20:06;15.50;;;8.50;;
55800;SDS011;41730;51.960;20.158;2022-10-10T04:22:37;15.50;;;9.20;;
55800;SDS011;41730;51.960;20.158;2022-10-10T04:25:09;14.60;;;8.60;;
55800;SDS011;41730;51.960;20.158;2022-10-10T04:27:41;14.40;;;9.30;;
55800;SDS011;41730;51.960;20.158;2022-10-10T04:30:12;15.50;;;9.20;;
55800;SDS011;41730;51.960;20.158;2022-10-10T04:32:44;15.20;;;8.80;;
55800;SDS011;41730;51.960;20.158;2022-10-10T04:35:16;15.80;;;8.80;;
55800;SDS011;41730;51.960;20.158;2022-10-10T04:37:47;12.40;;;8.00;;
55800;SDS011;41730;51.960;20.158;2022-10-10T04:40:19;14.30;;;8.00;;
55800;SDS011;41730;51.960;20.158;2022-10-10T04:42:53;12.70;;;7.70;;
55800;SDS011;41730;51.960;20.158;2022-10-10T04:45:25;13.30;;;7.80;;
55800;SDS011;41730;51.960;20.158;2022-10-10T04:48:02;14.50;;;8.40;;
55800;SDS011;41730;51.960;20.158;2022-10-10T04:50:33;14.90;;;8.70;;
55800;SDS011;41730;51.960;20.158;2022-10-10T04:53:04;14.60;;;8.30;;
55800;SDS011;41730;51.960;20.158;2022-10-10T04:55:36;13.60;;;8.00;;
55800;SDS011;41730;51.960;20.158;2022-10-10T04:58:07;16.70;;;9.00;;
55800;SDS011;41730;51.960;20.158;2022-10-10T05:00:39;13.80;;;8.80;;
55800;SDS011;41730;51.960;20.158;2022-10-10T05:03:10;12.90;;;7.70;;
55800;SDS011;41730;51.960;20.158;2022-10-10T05:05:42;13.50;;;7.20;;
55800;SDS011;41730;51.960;20.158;2022-10-10T05:08:13;15.20;;;8.50;;
55800;SDS011;41730;51.960;20.158;2022-10-10T05:10:45;13.10;;;7.50;;
55800;SDS011;41730;51.960;20.158;2022-10-10T05:13:19;13.10;;;8.40;;
55800;SDS011;41730;51.960;20.158;2022-10-10T05:15:51;12.50;;;8.20;;
55800;SDS011;41730;51.960;20.158;2022-10-10T05:18:22;14.90;;;8.10;;
55800;SDS011;41730;51.960;20.158;2022-10-10T05:20:53;17.00;;;8.30;;
55800;SDS011;41730;51.960;20.158;2022-10-10T05:23:30;14.50;;;7.60;;
55800;SDS011;41730;51.960;20.158;2022-10-10T05:26:01;14.30;;;8.60;;
55800;SDS011;41730;51.960;20.158;2022-10-10T05:28:33;15.80;;;7.90;;
55800;SDS011;41730;51.960;20.158;2022-10-10T05:31:04;17.10;;;7.90;;
55800;SDS011;41730;51.960;20.158;2022-10-10T05:33:36;15.60;;;8.50;;
55800;SDS011;41730;51.960;20.158;2022-10-10T05:36:10;16.60;;;8.20;;
55800;SDS011;41730;51.960;20.158;2022-10-10T05:38:42;19.60;;;8.50;;
55800;SDS011;41730;51.960;20.158;2022-10-10T05:41:14;15.90;;;7.60;;
55800;SDS011;41730;51.960;20.158;2022-10-10T05:43:45;17.40;;;7.50;;
55800;SDS011;41730;51.960;20.158;2022-10-10T05:46:17;14.00;;;7.20;;
55800;SDS011;41730;51.960;20.158;2022-10-10T05:48:51;14.90;;;8.00;;
55800;SDS011;41730;51.960;20.158;2022-10-10T05:51:23;15.30;;;7.90;;
55800;SDS011;41730;51.960;20.158;2022-10-10T05:53:54;12.10;;;7.20;;
55800;SDS011;41730;51.960;20.158;2022-10-10T05:56:26;13.10;;;7.20;;
55800;SDS011;41730;51.960;20.158;2022-10-10T05:58:57;11.40;;;7.20;;
55800;SDS011;41730;51.960;20.158;2022-10-10T06:01:28;15.20;;;6.70;;
55800;SDS011;41730;51.960;20.158;2022-10-10T06:04:00;14.20;;;7.50;;
55800;SDS011;41730;51.960;20.158;2022-10-10T06:06:31;12.20;;;6.60;;
55800;SDS011;41730;51.960;20.158;2022-10-10T06:09:02;14.30;;;6.90;;
55800;SDS011;41730;51.960;20.158;2022-10-10T06:11:34;12.00;;;5.90;;
55800;SDS011;41730;51.960;20.158;2022-10-10T06:14:05;14.10;;;6.80;;
55800;SDS011;41730;51.960;20.158;2022-10-10T06:16:37;10.60;;;6.40;;
55800;SDS011;41730;51.960;20.158;2022-10-10T06:19:10;12.10;;;6.80;;
55800;SDS011;41730;51.960;20.158;2022-10-10T06:21:42;12.60;;;6.90;;
55800;SDS011;41730;51.960;20.158;2022-10-10T06:24:13;12.20;;;7.10;;
55800;SDS011;41730;51.960;20.158;2022-10-10T06:26:44;15.90;;;8.00;;
55800;SDS011;41730;51.960;20.158;2022-10-10T06:29:15;13.00;;;6.80;;
55800;SDS011;41730;51.960;20.158;2022-10-10T06:31:47;13.30;;;7.40;;
55800;SDS011;41730;51.960;20.158;2022-10-10T06:34:18;13.80;;;7.40;;
55800;SDS011;41730;51.960;20.158;2022-10-10T06:36:49;15.90;;;7.70;;
55800;SDS011;41730;51.960;20.158;2022-10-10T06:39:21;17.00;;;8.50;;
55800;SDS011;41730;51.960;20.158;2022-10-10T06:41:52;13.10;;;7.80;;
55800;SDS011;41730;51.960;20.158;2022-10-10T06:44:24;12.10;;;7.30;;
55800;SDS011;41730;51.960;20.158;2022-10-10T06:46:55;14.20;;;7.50;;
55800;SDS011;41730;51.960;20.158;2022-10-10T06:49:26;12.80;;;6.40;;
55800;SDS011;41730;51.960;20.158;2022-10-10T06:51:57;12.00;;;7.40;;
55800;SDS011;41730;51.960;20.158;2022-10-10T06:54:29;17.40;;;8.00;;
55800;SDS011;41730;51.960;20.158;2022-10-10T06:57:00;12.50;;;7.70;;
55800;SDS011;41730;51.960;20.158;2022-10-10T06:59:32;17.70;;;8.80;;
55800;SDS011;41730;51.960;20.158;2022-10-10T07:02:03;15.40;;;7.90;;
55800;SDS011;41730;51.960;20.158;2022-10-10T07:04:35;14.60;;;7.90;;
55800;SDS011;41730;51.960;20.158;2022-10-10T07:07:06;16.10;;;9.10;;
55800;SDS011;41730;51.960;20.158;2022-10-10T07:09:37;15.70;;;8.00;;
55800;SDS011;41730;51.960;20.158;2022-10-10T07:12:09;13.60;;;8.20;;
55800;SDS011;41730;51.960;20.158;2022-10-10T07:14:40;16.10;;;8.50;;
55800;SDS011;41730;51.960;20.158;2022-10-10T07:17:11;13.50;;;7.80;;
55800;SDS011;41730;51.960;20.158;2022-10-10T07:19:43;13.50;;;7.40;;
55800;SDS011;41730;51.960;20.158;2022-10-10T07:22:14;13.90;;;9.10;;
55800;SDS011;41730;51.960;20.158;2022-10-10T07:24:46;11.30;;;8.00;;
55800;SDS011;41730;51.960;20.158;2022-10-10T07:27:17;15.90;;;8.20;;
55800;SDS011;41730;51.960;20.158;2022-10-10T07:29:48;11.60;;;7.90;;
55800;SDS011;41730;51.960;20.158;2022-10-10T07:32:20;13.70;;;7.60;;
55800;SDS011;41730;51.960;20.158;2022-10-10T07:34:51;15.50;;;7.60;;
55800;SDS011;41730;51.960;20.158;2022-10-10T07:37:25;13.90;;;7.10;;
55800;SDS011;41730;51.960;20.158;2022-10-10T07:39:56;11.20;;;6.90;;
55800;SDS011;41730;51.960;20.158;2022-10-10T07:42:28;10.80;;;6.70;;
55800;SDS011;41730;51.960;20.158;2022-10-10T07:44:59;16.00;;;8.70;;
55800;SDS011;41730;51.960;20.158;2022-10-10T07:47:30;10.10;;;6.80;;
55800;SDS011;41730;51.960;20.158;2022-10-10T07:50:02;10.30;;;6.40;;
55800;SDS011;41730;51.960;20.158;2022-10-10T07:52:34;11.20;;;6.90;;
55800;SDS011;41730;51.960;20.158;2022-10-10T07:55:07;12.20;;;7.20;;
55800;SDS011;41730;51.960;20.158;2022-10-10T07:57:39;8.90;;;6.00;;
55800;SDS011;41730;51.960;20.158;2022-10-10T08:00:11;11.20;;;6.30;;
55800;SDS011;41730;51.960;20.158;2022-10-10T08:02:43;9.50;;;5.60;;
55800;SDS011;41730;51.960;20.158;2022-10-10T08:05:15;11.60;;;6.10;;
55800;SDS011;41730;51.960;20.158;2022-10-10T08:07:46;7.70;;;5.10;;
55800;SDS011;41730;51.960;20.158;2022-10-10T08:10:18;8.70;;;5.30;;
55800;SDS011;41730;51.960;20.158;2022-10-10T08:12:49;8.60;;;5.30;;
55800;SDS011;41730;51.960;20.158;2022-10-10T08:15:21;8.60;;;5.50;;
55800;SDS011;41730;51.960;20.158;2022-10-10T08:17:57;11.60;;;5.50;;
55800;SDS011;41730;51.960;20.158;2022-10-10T08:20:28;9.10;;;5.60;;
55800;SDS011;41730;51.960;20.158;2022-10-10T08:22:59;9.70;;;5.70;;
55800;SDS011;41730;51.960;20.158;2022-10-10T08:25:31;7.20;;;4.70;;
55800;SDS011;41730;51.960;20.158;2022-10-10T08:28:02;8.30;;;5.00;;
55800;SDS011;41730;51.960;20.158;2022-10-10T08:30:34;8.60;;;4.30;;
55800;SDS011;41730;51.960;20.158;2022-10-10T08:33:10;9.00;;;4.30;;
55800;SDS011;41730;51.960;20.158;2022-10-10T08:35:41;6.80;;;4.40;;
55800;SDS011;41730;51.960;20.158;2022-10-10T08:38:13;7.80;;;4.60;;
55800;SDS011;41730;51.960;20.158;2022-10-10T08:40:45;8.80;;;4.80;;
55800;SDS011;41730;51.960;20.158;2022-10-10T08:43:20;9.40;;;4.90;;
55800;SDS011;41730;51.960;20.158;2022-10-10T08:45:57;7.40;;;4.10;;
55800;SDS011;41730;51.960;20.158;2022-10-10T08:48:37;9.00;;;4.40;;
55800;SDS011;41730;51.960;20.158;2022-10-10T08:51:11;7.70;;;4.10;;
55800;SDS011;41730;51.960;20.158;2022-10-10T08:53:53;11.40;;;4.30;;
55800;SDS011;41730;51.960;20.158;2022-10-10T08:56:28;7.70;;;4.10;;
55800;SDS011;41730;51.960;20.158;2022-10-10T08:59:01;9.90;;;5.00;;
55800;SDS011;41730;51.960;20.158;2022-10-10T09:01:38;11.00;;;5.50;;
55800;SDS011;41730;51.960;20.158;2022-10-10T09:04:29;6.80;;;4.60;;
55800;SDS011;41730;51.960;20.158;2022-10-10T09:07:04;7.20;;;4.10;;
55800;SDS011;41730;51.960;20.158;2022-10-10T09:09:48;5.70;;;3.80;;
55800;SDS011;41730;51.960;20.158;2022-10-10T09:12:27;7.10;;;3.70;;
55800;SDS011;41730;51.960;20.158;2022-10-10T09:15:11;7.10;;;3.60;;
55800;SDS011;41730;51.960;20.158;2022-10-10T09:17:50;7.10;;;4.20;;
55800;SDS011;41730;51.960;20.158;2022-10-10T09:20:35;5.90;;;3.80;;
55800;SDS011;41730;51.960;20.158;2022-10-10T09:23:15;7.80;;;4.10;;
55800;SDS011;41730;51.960;20.158;2022-10-10T09:25:52;6.00;;;3.60;;
55800;SDS011;41730;51.960;20.158;2022-10-10T09:28:32;7.30;;;3.90;;
55800;SDS011;41730;51.960;20.158;2022-10-10T09:31:09;4.80;;;3.20;;
55800;SDS011;41730;51.960;20.158;2022-10-10T09:33:46;6.70;;;3.10;;
55800;SDS011;41730;51.960;20.158;2022-10-10T09:36:23;5.80;;;3.50;;
55800;SDS011;41730;51.960;20.158;2022-10-10T09:39:00;6.10;;;3.40;;
55800;SDS011;41730;51.960;20.158;2022-10-10T09:41:42;6.40;;;3.70;;
55800;SDS011;41730;51.960;20.158;2022-10-10T09:44:19;5.20;;;3.50;;
55800;SDS011;41730;51.960;20.158;2022-10-10T09:46:51;6.30;;;3.20;;
55800;SDS011;41730;51.960;20.158;2022-10-10T09:49:22;6.10;;;3.60;;
55800;SDS011;41730;51.960;20.158;2022-10-10T09:51:54;5.90;;;3.60;;
55800;SDS011;41730;51.960;20.158;2022-10-10T09:54:25;4.20;;;3.30;;
55800;SDS011;41730;51.960;20.158;2022-10-10T09:56:58;11.50;;;3.60;;
55800;SDS011;41730;51.960;20.158;2022-10-10T09:59:39;8.20;;;4.10;;
55800;SDS011;41730;51.960;20.158;2022-10-10T10:02:16;8.20;;;4.50;;
55800;SDS011;41730;51.960;20.158;2022-10-10T10:04:49;6.50;;;3.50;;
55800;SDS011;41730;51.960;20.158;2022-10-10T10:07:23;14.50;;;4.80;;
55800;SDS011;41730;51.960;20.158;2022-10-10T10:09:58;12.00;;;4.80;;
55800;SDS011;41730;51.960;20.158;2022-10-10T10:12:41;8.90;;;4.20;;
55800;SDS011;41730;51.960;20.158;2022-10-10T10:15:17;7.50;;;3.90;;
55800;SDS011;41730;51.960;20.158;2022-10-10T10:20:49;8.00;;;3.80;;
55800;SDS011;41730;51.960;20.158;2022-10-10T10:23:26;5.50;;;3.10;;
55800;SDS011;41730;51.960;20.158;2022-10-10T10:26:04;6.10;;;3.80;;
55800;SDS011;41730;51.960;20.158;2022-10-10T10:28:44;6.10;;;3.50;;
55800;SDS011;41730;51.960;20.158;2022-10-10T10:31:19;5.20;;;3.10;;
55800;SDS011;41730;51.960;20.158;2022-10-10T10:34:02;5.30;;;3.50;;
55800;SDS011;41730;51.960;20.158;2022-10-10T10:36:44;9.40;;;3.90;;
55800;SDS011;41730;51.960;20.158;2022-10-10T10:39:31;6.40;;;3.30;;
55800;SDS011;41730;51.960;20.158;2022-10-10T10:42:15;5.70;;;3.60;;
55800;SDS011;41730;51.960;20.158;2022-10-10T10:44:54;6.50;;;3.30;;
55800;SDS011;41730;51.960;20.158;2022-10-10T10:47:36;6.50;;;3.30;;
55800;SDS011;41730;51.960;20.158;2022-10-10T10:50:24;5.60;;;3.40;;
55800;SDS011;41730;51.960;20.158;2022-10-10T10:53:07;5.70;;;3.40;;
55800;SDS011;41730;51.960;20.158;2022-10-10T10:55:46;6.00;;;3.30;;
55800;SDS011;41730;51.960;20.158;2022-10-10T11:01:46;5.70;;;3.10;;
55800;SDS011;41730;51.960;20.158;2022-10-10T11:04:30;6.10;;;3.00;;
55800;SDS011;41730;51.960;20.158;2022-10-10T11:07:36;4.70;;;2.60;;
55800;SDS011;41730;51.960;20.158;2022-10-10T11:10:15;6.40;;;2.90;;
55800;SDS011;41730;51.960;20.158;2022-10-10T11:12:56;5.20;;;3.00;;
55800;SDS011;41730;51.960;20.158;2022-10-10T11:15:33;5.30;;;3.00;;
55800;SDS011;41730;51.960;20.158;2022-10-10T11:18:30;6.20;;;3.00;;
55800;SDS011;41730;51.960;20.158;2022-10-10T11:21:06;6.10;;;2.60;;
55800;SDS011;41730;51.960;20.158;2022-10-10T11:23:43;4.20;;;2.70;;
55800;SDS011;41730;51.960;20.158;2022-10-10T11:26:21;3.90;;;2.50;;
55800;SDS011;41730;51.960;20.158;2022-10-10T11:28:56;4.70;;;2.60;;
55800;SDS011;41730;51.960;20.158;2022-10-10T11:31:32;4.70;;;2.70;;
55800;SDS011;41730;51.960;20.158;2022-10-10T11:34:11;4.00;;;2.50;;
55800;SDS011;41730;51.960;20.158;2022-10-10T11:36:48;6.20;;;2.60;;
55800;SDS011;41730;51.960;20.158;2022-10-10T11:39:23;3.80;;;2.40;;
55800;SDS011;41730;51.960;20.158;2022-10-10T11:41:59;5.10;;;2.40;;
55800;SDS011;41730;51.960;20.158;2022-10-10T11:44:36;4.90;;;2.70;;
55800;SDS011;41730;51.960;20.158;2022-10-10T11:47:12;4.10;;;2.50;;
55800;SDS011;41730;51.960;20.158;2022-10-10T11:49:52;4.20;;;2.70;;
55800;SDS011;41730;51.960;20.158;2022-10-10T11:52:29;6.60;;;2.60;;
55800;SDS011;41730;51.960;20.158;2022-10-10T11:55:12;4.20;;;2.40;;
55800;SDS011;41730;51.960;20.158;2022-10-10T11:57:51;4.70;;;2.80;;
55800;SDS011;41730;51.960;20.158;2022-10-10T12:00:25;4.50;;;2.40;;
55800;SDS011;41730;51.960;20.158;2022-10-10T12:03:02;4.60;;;2.70;;
55800;SDS011;41730;51.960;20.158;2022-10-10T12:05:35;5.00;;;2.50;;
55800;SDS011;41730;51.960;20.158;2022-10-10T12:08:12;4.80;;;2.80;;
55800;SDS011;41730;51.960;20.158;2022-10-10T12:10:48;3.70;;;2.40;;
55800;SDS011;41730;51.960;20.158;2022-10-10T12:13:29;4.70;;;2.60;;
55800;SDS011;41730;51.960;20.158;2022-10-10T12:16:04;4.60;;;2.70;;
55800;SDS011;41730;51.960;20.158;2022-10-10T12:18:42;3.60;;;2.30;;
55800;SDS011;41730;51.960;20.158;2022-10-10T12:21:16;5.30;;;2.50;;
55800;SDS011;41730;51.960;20.158;2022-10-10T12:29:40;3.60;;;2.20;;
55800;SDS011;41730;51.960;20.158;2022-10-10T12:32:28;4.70;;;2.20;;
55800;SDS011;41730;51.960;20.158;2022-10-10T12:38:16;3.00;;;2.00;;
55800;SDS011;41730;51.960;20.158;2022-10-10T12:41:04;3.60;;;1.80;;
55800;SDS011;41730;51.960;20.158;2022-10-10T12:43:41;3.70;;;2.10;;
55800;SDS011;41730;51.960;20.158;2022-10-10T12:46:43;3.30;;;2.50;;
55800;SDS011;41730;51.960;20.158;2022-10-10T12:49:18;3.10;;;2.10;;
55800;SDS011;41730;51.960;20.158;2022-10-10T12:52:01;4.20;;;2.30;;
55800;SDS011;41730;51.960;20.158;2022-10-10T12:54:40;4.00;;;2.20;;
55800;SDS011;41730;51.960;20.158;2022-10-10T12:57:15;4.90;;;2.50;;
55800;SDS011;41730;51.960;20.158;2022-10-10T12:59:52;4.20;;;2.40;;
55800;SDS011;41730;51.960;20.158;2022-10-10T13:02:28;4.70;;;2.70;;
55800;SDS011;41730;51.960;20.158;2022-10-10T13:05:00;5.30;;;2.90;;
55800;SDS011;41730;51.960;20.158;2022-10-10T13:07:36;5.70;;;3.00;;
55800;SDS011;41730;51.960;20.158;2022-10-10T13:10:18;6.80;;;4.40;;
55800;SDS011;41730;51.960;20.158;2022-10-10T13:13:01;4.60;;;2.30;;
55800;SDS011;41730;51.960;20.158;2022-10-10T13:15:34;3.80;;;2.20;;
55800;SDS011;41730;51.960;20.158;2022-10-10T13:18:06;4.40;;;2.70;;
55800;SDS011;41730;51.960;20.158;2022-10-10T13:20:37;4.30;;;2.50;;
55800;SDS011;41730;51.960;20.158;2022-10-10T13:23:16;4.40;;;2.60;;
55800;SDS011;41730;51.960;20.158;2022-10-10T13:25:49;4.00;;;2.50;;
55800;SDS011;41730;51.960;20.158;2022-10-10T13:28:20;5.60;;;2.50;;
55800;SDS011;41730;51.960;20.158;2022-10-10T13:30:52;4.10;;;2.40;;
55800;SDS011;41730;51.960;20.158;2022-10-10T13:33:24;4.60;;;2.40;;
55800;SDS011;41730;51.960;20.158;2022-10-10T13:36:04;5.30;;;2.10;;
55800;SDS011;41730;51.960;20.158;2022-10-10T13:38:46;6.50;;;2.40;;
55800;SDS011;41730;51.960;20.158;2022-10-10T13:41:22;4.10;;;2.10;;
55800;SDS011;41730;51.960;20.158;2022-10-10T13:43:55;4.50;;;2.30;;
55800;SDS011;41730;51.960;20.158;2022-10-10T13:46:30;4.30;;;2.20;;
55800;SDS011;41730;51.960;20.158;2022-10-10T13:49:11;4.50;;;2.40;;
55800;SDS011;41730;51.960;20.158;2022-10-10T13:51:58;5.20;;;2.40;;
55800;SDS011;41730;51.960;20.158;2022-10-10T13:54:38;3.30;;;2.10;;
55800;SDS011;41730;51.960;20.158;2022-10-10T13:57:13;5.30;;;2.40;;
55800;SDS011;41730;51.960;20.158;2022-10-10T13:59:48;5.00;;;2.40;;
55800;SDS011;41730;51.960;20.158;2022-10-10T14:02:30;4.70;;;2.70;;
55800;SDS011;41730;51.960;20.158;2022-10-10T14:05:04;4.30;;;2.20;;
55800;SDS011;41730;51.960;20.158;2022-10-10T14:07:44;4.60;;;2.10;;
55800;SDS011;41730;51.960;20.158;2022-10-10T14:10:18;4.10;;;1.90;;
55800;SDS011;41730;51.960;20.158;2022-10-10T14:15:31;4.30;;;2.50;;
55800;SDS011;41730;51.960;20.158;2022-10-10T14:20:43;6.00;;;2.40;;
55800;SDS011;41730;51.960;20.158;2022-10-10T14:23:15;5.70;;;2.30;;
55800;SDS011;41730;51.960;20.158;2022-10-10T14:25:47;3.70;;;2.40;;
55800;SDS011;41730;51.960;20.158;2022-10-10T14:28:20;4.40;;;2.50;;
55800;SDS011;41730;51.960;20.158;2022-10-10T14:30:56;3.60;;;2.10;;
55800;SDS011;41730;51.960;20.158;2022-10-10T14:33:28;7.20;;;2.80;;
55800;SDS011;41730;51.960;20.158;2022-10-10T14:36:00;6.20;;;3.50;;
55800;SDS011;41730;51.960;20.158;2022-10-10T14:38:32;7.10;;;3.30;;
55800;SDS011;41730;51.960;20.158;2022-10-10T14:41:04;5.20;;;3.30;;
55800;SDS011;41730;51.960;20.158;2022-10-10T14:43:35;4.30;;;2.80;;
55800;SDS011;41730;51.960;20.158;2022-10-10T14:46:14;4.20;;;2.50;;
55800;SDS011;41730;51.960;20.158;2022-10-10T14:48:47;4.10;;;2.60;;
55800;SDS011;41730;51.960;20.158;2022-10-10T14:51:19;4.40;;;2.80;;
55800;SDS011;41730;51.960;20.158;2022-10-10T14:54:02;4.70;;;3.10;;
55800;SDS011;41730;51.960;20.158;2022-10-10T14:56:38;6.70;;;3.50;;
55800;SDS011;41730;51.960;20.158;2022-10-10T14:59:30;8.10;;;4.40;;
55800;SDS011;41730;51.960;20.158;2022-10-10T15:02:16;10.30;;;5.30;;
55800;SDS011;41730;51.960;20.158;2022-10-10T15:04:51;12.80;;;5.90;;
55800;SDS011;41730;51.960;20.158;2022-10-10T15:07:23;8.80;;;4.70;;
55800;SDS011;41730;51.960;20.158;2022-10-10T15:09:54;7.60;;;4.00;;
55800;SDS011;41730;51.960;20.158;2022-10-10T15:12:45;6.50;;;3.30;;
55800;SDS011;41730;51.960;20.158;2022-10-10T15:15:17;6.90;;;4.70;;
55800;SDS011;41730;51.960;20.158;2022-10-10T15:17:48;6.80;;;4.00;;
55800;SDS011;41730;51.960;20.158;2022-10-10T15:20:20;8.30;;;4.40;;
55800;SDS011;41730;51.960;20.158;2022-10-10T15:22:58;8.70;;;4.70;;
55800;SDS011;41730;51.960;20.158;2022-10-10T15:25:31;10.40;;;5.70;;
55800;SDS011;41730;51.960;20.158;2022-10-10T15:28:03;7.90;;;5.50;;
55800;SDS011;41730;51.960;20.158;2022-10-10T15:30:35;9.50;;;5.30;;
55800;SDS011;41730;51.960;20.158;2022-10-10T15:33:10;20.00;;;9.60;;